createdAt,value
2022-10-17T00:01:21.245Z,99.80
2022-10-17T00:03:49.727Z,99.30
2022-10-17T00:06:18.323Z,99.20
2022-10-17T00:08:46.933Z,99.00
2022-10-17T00:11:19.042Z,99.10
2022-10-17T00:13:50.943Z,98.80
2022-10-17T00:16:26.724Z,98.10
2022-10-17T00:18:55.837Z,98.10
2022-10-17T00:21:26.050Z,98.20
2022-10-17T00:23:54.911Z,98.80
2022-10-17T00:26:23.600Z,98.30
2022-10-17T00:28:54.601Z,97.90
2022-10-17T00:31:25.009Z,98.70
2022-10-17T00:33:54.878Z,98.50
2022-10-17T00:36:26.235Z,98.70
2022-10-17T00:38:58.071Z,98.60
2022-10-17T00:41:30.419Z,98.60
2022-10-17T00:44:03.184Z,98.20
2022-10-17T00:46:34.613Z,98.50
2022-10-17T00:49:07.714Z,99.90
2022-10-17T00:51:45.093Z,99.80
2022-10-17T00:54:17.177Z,99.10
2022-10-17T00:56:48.099Z,98.70
2022-10-17T00:59:21.081Z,98.90
2022-10-17T01:02:05.368Z,99.50
2022-10-17T01:04:34.509Z,99.30
2022-10-17T01:07:02.975Z,98.50
2022-10-17T01:09:32.040Z,98.50
2022-10-17T01:12:12.906Z,99.70
2022-10-17T01:15:01.502Z,99.40
2022-10-17T01:17:42.499Z,98.60
2022-10-17T01:21:08.618Z,97.90
2022-10-17T01:24:45.495Z,98.30
2022-10-17T01:27:48.969Z,99.20
2022-10-17T01:30:57.787Z,99.60
2022-10-17T01:33:42.059Z,98.90
2022-10-17T01:36:16.700Z,98.10
2022-10-17T01:38:50.798Z,99.70
2022-10-17T01:41:32.536Z,99.90
2022-10-17T01:44:09.691Z,99.90
2022-10-17T01:46:42.512Z,99.60
2022-10-17T01:49:15.223Z,98.60
2022-10-17T01:51:49.496Z,98.30
2022-10-17T01:54:25.294Z,98.00
2022-10-17T01:57:00.955Z,98.40
2022-10-17T01:59:38.731Z,98.50
2022-10-17T02:02:10.680Z,99.50
2022-10-17T02:04:39.615Z,98.40
2022-10-17T02:07:09.432Z,98.00
2022-10-17T02:09:38.304Z,98.20
2022-10-17T02:12:27.615Z,99.80
2022-10-17T02:15:19.622Z,99.40
2022-10-17T02:18:04.300Z,99.90
2022-10-17T02:20:42.312Z,99.50
2022-10-17T02:23:20.907Z,99.20
2022-10-17T02:25:58.856Z,98.80
2022-10-17T02:28:34.979Z,99.20
2022-10-17T02:31:12.832Z,98.90
2022-10-17T02:33:50.655Z,99.30
2022-10-17T02:36:25.944Z,99.30
2022-10-17T02:38:57.640Z,99.00
2022-10-17T02:44:03.509Z,98.90
2022-10-17T02:46:34.307Z,99.00
2022-10-17T02:49:15.590Z,98.80
2022-10-17T02:51:52.726Z,98.50
2022-10-17T02:54:29.370Z,98.80
2022-10-17T02:57:06.951Z,99.90
2022-10-17T02:59:38.692Z,99.90
2022-10-17T03:02:08.356Z,99.90
2022-10-17T03:04:38.656Z,99.90
2022-10-17T03:07:07.133Z,99.90
2022-10-17T03:09:35.591Z,99.90
2022-10-17T03:12:04.289Z,99.90
2022-10-17T03:14:32.935Z,99.60
2022-10-17T03:17:01.439Z,99.90
2022-10-17T03:19:29.885Z,99.90
2022-10-17T03:21:59.685Z,99.90
2022-10-17T03:24:28.317Z,99.90
2022-10-17T03:26:57.078Z,99.90
2022-10-17T03:29:25.672Z,99.90
2022-10-17T03:31:54.124Z,99.90
2022-10-17T03:34:23.125Z,99.90
2022-10-17T03:36:51.591Z,99.90
2022-10-17T03:39:21.436Z,99.90
2022-10-17T03:41:50.116Z,99.90
2022-10-17T03:44:18.566Z,99.90
2022-10-17T03:46:47.265Z,99.90
2022-10-17T03:49:15.695Z,99.90
2022-10-17T03:51:44.120Z,99.90
2022-10-17T03:54:12.565Z,99.90
2022-10-17T03:56:42.441Z,99.90
2022-10-17T03:59:14.675Z,99.90
2022-10-17T04:01:44.053Z,99.90
2022-10-17T04:04:12.618Z,99.90
2022-10-17T04:06:41.370Z,99.90
2022-10-17T04:09:11.451Z,99.90
2022-10-17T04:11:41.309Z,99.90
2022-10-17T04:14:11.103Z,99.90
2022-10-17T04:16:40.719Z,99.90
2022-10-17T04:19:09.149Z,99.90
2022-10-17T04:21:38.116Z,99.90
2022-10-17T04:24:07.166Z,99.90
2022-10-17T04:26:35.609Z,99.90
2022-10-17T04:29:05.677Z,99.90
2022-10-17T04:31:34.362Z,99.90
2022-10-17T04:34:02.787Z,99.90
2022-10-17T04:36:31.231Z,99.90
2022-10-17T04:39:01.794Z,99.90
2022-10-17T04:41:30.487Z,99.90
2022-10-17T04:43:58.935Z,99.90
2022-10-17T04:46:28.835Z,99.90
2022-10-17T04:51:43.092Z,99.90
2022-10-17T04:54:11.762Z,99.90
2022-10-17T04:56:40.197Z,99.90
2022-10-17T04:59:08.800Z,99.90
2022-10-17T05:01:38.649Z,99.90
2022-10-17T05:04:07.212Z,99.90
2022-10-17T05:06:37.969Z,99.90
2022-10-17T05:09:06.460Z,99.90
2022-10-17T05:11:34.950Z,99.90
2022-10-17T05:14:04.032Z,99.90
2022-10-17T05:16:32.635Z,99.90
2022-10-17T05:19:03.513Z,99.90
2022-10-17T05:24:08.207Z,99.90
2022-10-17T05:26:37.019Z,99.90
2022-10-17T05:29:06.451Z,99.90
2022-10-17T05:31:35.167Z,99.90
2022-10-17T05:34:07.074Z,99.90
2022-10-17T05:36:37.767Z,99.90
2022-10-17T05:39:06.281Z,99.90
2022-10-17T05:41:34.911Z,99.90
2022-10-17T05:44:05.516Z,99.90
2022-10-17T05:46:35.040Z,99.90
2022-10-17T05:49:14.786Z,99.90
2022-10-17T05:51:48.073Z,99.90
2022-10-17T05:54:16.732Z,99.90
2022-10-17T05:56:45.148Z,99.90
2022-10-17T05:59:13.795Z,99.90
2022-10-17T06:01:42.267Z,99.90
2022-10-17T06:04:12.397Z,99.90
2022-10-17T06:06:41.888Z,99.90
2022-10-17T06:09:10.734Z,99.90
2022-10-17T06:11:39.535Z,99.90
2022-10-17T06:14:08.683Z,99.90
2022-10-17T06:16:37.172Z,99.90
2022-10-17T06:19:05.663Z,99.90
2022-10-17T06:21:38.062Z,99.90
2022-10-17T06:24:06.704Z,99.90
2022-10-17T06:26:35.456Z,99.90
2022-10-17T06:29:04.019Z,99.90
2022-10-17T06:31:32.498Z,99.90
2022-10-17T06:34:01.179Z,99.90
2022-10-17T06:36:29.631Z,99.90
2022-10-17T06:38:59.458Z,99.90
2022-10-17T06:41:28.344Z,99.90
2022-10-17T06:43:56.855Z,99.90
2022-10-17T06:46:29.202Z,99.90
2022-10-17T06:48:57.649Z,99.90
2022-10-17T06:51:26.076Z,99.90
2022-10-17T06:53:54.536Z,99.90
2022-10-17T06:56:24.363Z,99.90
2022-10-17T06:58:53.088Z,99.90
2022-10-17T07:01:22.524Z,99.90
2022-10-17T07:03:51.260Z,99.90
2022-10-17T07:06:19.844Z,99.90
2022-10-17T07:08:48.461Z,99.90
2022-10-17T07:11:19.687Z,99.90
2022-10-17T07:13:50.397Z,99.90
2022-10-17T07:16:18.926Z,99.90
2022-10-17T07:18:50.835Z,99.90
2022-10-17T07:21:19.556Z,99.90
2022-10-17T07:23:48.227Z,99.90
2022-10-17T07:26:19.035Z,99.90
2022-10-17T07:28:55.112Z,99.90
2022-10-17T07:31:24.930Z,99.90
2022-10-17T07:33:53.417Z,99.90
2022-10-17T07:36:21.868Z,99.90
2022-10-17T07:38:50.300Z,99.90
2022-10-17T07:41:21.669Z,99.90
2022-10-17T07:43:52.182Z,99.90
2022-10-17T07:46:20.635Z,99.90
2022-10-17T07:48:49.276Z,99.90
2022-10-17T07:51:18.751Z,99.90
2022-10-17T07:53:48.849Z,99.90
2022-10-17T07:56:17.847Z,99.90
2022-10-17T07:58:48.472Z,99.90
2022-10-17T08:01:19.180Z,99.90
2022-10-17T08:03:49.904Z,99.90
2022-10-17T08:06:19.156Z,99.90
2022-10-17T08:08:47.589Z,99.90
2022-10-17T08:11:17.056Z,99.90
2022-10-17T08:13:45.638Z,99.90
2022-10-17T08:16:15.457Z,99.90
2022-10-17T08:18:45.640Z,99.90
2022-10-17T08:21:14.584Z,99.90
2022-10-17T08:23:43.401Z,99.90
2022-10-17T08:26:13.743Z,99.90
2022-10-17T08:28:42.519Z,99.90
2022-10-17T08:31:15.432Z,99.90
2022-10-17T08:33:45.645Z,99.90
2022-10-17T08:36:17.167Z,99.90
2022-10-17T08:38:51.665Z,99.90
2022-10-17T08:41:53.820Z,99.90
2022-10-17T08:44:40.740Z,99.90
2022-10-17T08:47:17.882Z,99.90
2022-10-17T08:49:55.770Z,99.90
2022-10-17T08:52:40.272Z,99.90
2022-10-17T08:57:49.885Z,99.90
2022-10-17T09:00:22.173Z,99.90
2022-10-17T09:03:07.279Z,99.90
2022-10-17T09:05:50.425Z,99.90
2022-10-17T09:08:38.269Z,99.90
2022-10-17T09:11:21.645Z,99.90
2022-10-17T09:14:06.355Z,99.90
2022-10-17T09:17:03.129Z,99.90
2022-10-17T09:19:38.341Z,99.90
2022-10-17T09:22:15.528Z,99.90
2022-10-17T09:24:53.159Z,99.90
2022-10-17T09:27:27.229Z,99.90
2022-10-17T09:30:43.723Z,99.90
2022-10-17T09:33:28.200Z,99.90
2022-10-17T09:36:10.187Z,99.90
2022-10-17T09:38:45.053Z,99.90
2022-10-17T09:41:43.772Z,99.90
2022-10-17T09:44:17.866Z,99.90
2022-10-17T09:47:21.648Z,99.90
2022-10-17T09:49:51.635Z,99.90
2022-10-17T09:52:23.815Z,99.90
2022-10-17T09:54:58.570Z,99.90
2022-10-17T09:57:27.496Z,99.90
2022-10-17T10:00:01.742Z,99.90
2022-10-17T10:02:33.515Z,99.90
2022-10-17T10:05:07.067Z,98.00
2022-10-17T10:07:39.868Z,96.30
2022-10-17T10:10:27.835Z,95.60
2022-10-17T10:13:17.398Z,86.90
2022-10-17T10:15:48.032Z,90.90
2022-10-17T10:18:33.145Z,93.40
2022-10-17T10:21:10.156Z,91.60
2022-10-17T10:23:41.195Z,78.60
2022-10-17T10:26:39.679Z,84.00
2022-10-17T10:29:24.671Z,80.30
2022-10-17T10:31:55.167Z,74.20
2022-10-17T10:34:28.914Z,76.70
2022-10-17T10:37:03.472Z,70.10
2022-10-17T10:39:46.962Z,67.10
2022-10-17T10:42:28.465Z,61.70
2022-10-17T10:45:02.557Z,64.90
2022-10-17T10:47:33.661Z,63.70
2022-10-17T10:50:27.154Z,64.20
2022-10-17T10:53:17.268Z,64.50
2022-10-17T10:55:51.876Z,64.00
2022-10-17T10:58:42.903Z,67.10
2022-10-17T11:01:22.582Z,66.70
2022-10-17T11:04:07.380Z,63.20
2022-10-17T11:06:41.208Z,57.60
2022-10-17T11:09:30.095Z,64.60
2022-10-17T11:12:08.955Z,60.50
2022-10-17T11:14:48.132Z,60.90
2022-10-17T11:17:32.736Z,61.00
2022-10-17T11:20:15.473Z,63.50
2022-10-17T11:22:48.256Z,59.60
2022-10-17T11:25:32.138Z,59.90
2022-10-17T11:28:04.900Z,63.60
2022-10-17T11:30:50.392Z,59.30
2022-10-17T11:33:28.075Z,55.80
2022-10-17T11:36:05.675Z,61.20
2022-10-17T11:38:52.063Z,58.00
2022-10-17T11:41:30.621Z,58.40
2022-10-17T11:44:08.938Z,57.40
2022-10-17T11:46:42.175Z,60.20
2022-10-17T11:49:20.384Z,57.10
2022-10-17T11:52:00.327Z,57.90
2022-10-17T11:54:38.983Z,57.60
2022-10-17T11:57:41.982Z,56.50
2022-10-17T12:00:37.960Z,58.30
2022-10-17T12:03:26.069Z,60.90
2022-10-17T12:06:04.741Z,59.00
2022-10-17T12:08:42.811Z,60.30
2022-10-17T12:11:29.757Z,59.60
2022-10-17T12:14:00.052Z,58.70
2022-10-17T12:16:51.124Z,58.30
2022-10-17T12:19:32.565Z,58.80
2022-10-17T12:22:21.880Z,59.10
2022-10-17T12:25:00.779Z,59.10
2022-10-17T12:27:46.254Z,58.00
2022-10-17T12:30:27.020Z,61.00
2022-10-17T12:33:09.147Z,58.90
2022-10-17T12:35:40.642Z,58.80
2022-10-17T12:38:30.785Z,57.10
2022-10-17T12:41:05.588Z,59.60
2022-10-17T12:43:56.206Z,57.00
2022-10-17T12:46:58.195Z,58.60
2022-10-17T12:49:45.690Z,61.00
2022-10-17T12:52:44.240Z,58.20
2022-10-17T12:55:18.512Z,57.50
2022-10-17T12:57:58.904Z,59.80
2022-10-17T13:00:37.092Z,57.80
2022-10-17T13:03:14.077Z,57.00
2022-10-17T13:05:49.728Z,59.90
2022-10-17T13:08:27.149Z,56.90
2022-10-17T13:10:57.176Z,57.70
2022-10-17T13:13:39.377Z,57.90
2022-10-17T13:16:08.982Z,56.00
2022-10-17T13:18:37.607Z,55.50
2022-10-17T13:21:15.709Z,56.00
2022-10-17T13:23:47.648Z,56.00
2022-10-17T13:26:20.588Z,56.10
2022-10-17T13:29:04.035Z,55.80
2022-10-17T13:31:35.399Z,59.10
2022-10-17T13:34:06.855Z,54.80
2022-10-17T13:36:36.915Z,55.70
2022-10-17T13:39:17.131Z,56.30
2022-10-17T13:41:48.371Z,57.50
2022-10-17T13:44:22.818Z,55.70
2022-10-17T13:46:52.852Z,56.90
2022-10-17T13:49:38.226Z,58.30
2022-10-17T13:52:15.960Z,59.30
2022-10-17T13:54:48.736Z,59.90
2022-10-17T13:57:22.852Z,58.80
2022-10-17T13:59:55.084Z,59.80
2022-10-17T14:02:27.056Z,59.40
2022-10-17T14:05:17.159Z,60.20
2022-10-17T14:10:45.320Z,59.60
2022-10-17T14:13:23.767Z,61.70
2022-10-17T14:15:53.607Z,60.20
2022-10-17T14:18:34.864Z,58.60
2022-10-17T14:24:14.775Z,61.30
2022-10-17T14:26:52.704Z,61.00
2022-10-17T14:29:26.587Z,59.20
2022-10-17T14:32:06.471Z,59.00
2022-10-17T14:34:38.476Z,61.80
2022-10-17T14:37:12.295Z,60.70
2022-10-17T14:39:41.279Z,60.10
2022-10-17T14:42:21.442Z,59.60
2022-10-17T14:44:52.153Z,58.90
2022-10-17T14:47:43.958Z,58.90
2022-10-17T14:50:25.056Z,60.30
2022-10-17T14:53:07.004Z,59.10
2022-10-17T14:55:37.075Z,59.80
2022-10-17T14:58:22.995Z,59.10
2022-10-17T15:00:51.514Z,61.00
2022-10-17T15:03:20.357Z,61.00
2022-10-17T15:05:49.190Z,61.60
2022-10-17T15:08:21.079Z,61.80
2022-10-17T15:10:51.880Z,62.50
2022-10-17T15:13:32.151Z,61.50
2022-10-17T15:16:03.503Z,62.20
2022-10-17T15:18:32.598Z,62.00
2022-10-17T15:21:05.193Z,62.50
2022-10-17T15:23:42.604Z,65.90
2022-10-17T15:26:17.373Z,63.40
2022-10-17T15:28:49.865Z,63.70
2022-10-17T15:31:20.749Z,63.80
2022-10-17T15:33:50.399Z,64.20
2022-10-17T15:36:22.763Z,65.70
2022-10-17T15:38:53.506Z,64.50
2022-10-17T15:41:23.091Z,64.80
2022-10-17T15:43:53.257Z,67.10
2022-10-17T15:46:26.305Z,67.60
2022-10-17T15:48:56.063Z,69.20
2022-10-17T15:51:25.018Z,72.10
2022-10-17T15:53:53.452Z,72.70
2022-10-17T15:56:25.614Z,72.40
2022-10-17T15:58:56.105Z,73.80
2022-10-17T16:01:29.767Z,74.90
2022-10-17T16:03:58.754Z,75.40
2022-10-17T16:06:28.317Z,76.70
2022-10-17T16:08:56.809Z,79.40
2022-10-17T16:11:33.751Z,80.70
2022-10-17T16:14:06.744Z,81.60
2022-10-17T16:16:36.139Z,81.10
2022-10-17T16:19:05.148Z,81.10
2022-10-17T16:21:38.214Z,84.40
2022-10-17T16:24:07.789Z,82.50
2022-10-17T16:26:36.214Z,84.00
2022-10-17T16:29:06.227Z,86.80
2022-10-17T16:31:37.934Z,86.40
2022-10-17T16:34:06.903Z,90.00
2022-10-17T16:36:35.439Z,87.50
2022-10-17T16:39:04.350Z,90.80
2022-10-17T16:41:35.940Z,91.20
2022-10-17T16:44:08.815Z,91.60
2022-10-17T16:46:39.239Z,91.40
2022-10-17T16:49:08.732Z,91.00
2022-10-17T16:51:37.217Z,92.30
2022-10-17T16:54:05.844Z,92.60
2022-10-17T16:56:34.610Z,92.50
2022-10-17T16:59:03.883Z,92.90
2022-10-17T17:01:33.704Z,92.10
2022-10-17T17:04:04.796Z,92.60
2022-10-17T17:06:33.303Z,92.70
2022-10-17T17:09:01.833Z,93.40
2022-10-17T17:11:31.508Z,91.50
2022-10-17T17:14:02.687Z,92.10
2022-10-17T17:16:35.637Z,93.00
2022-10-17T17:19:07.183Z,93.20
2022-10-17T17:21:37.046Z,93.20
2022-10-17T17:24:06.773Z,94.20
2022-10-17T17:26:37.188Z,92.80
2022-10-17T17:29:06.446Z,93.20
2022-10-17T17:31:38.992Z,93.70
2022-10-17T17:34:07.603Z,92.70
2022-10-17T17:36:38.812Z,93.10
2022-10-17T17:39:11.795Z,94.00
2022-10-17T17:41:42.133Z,93.30
2022-10-17T17:44:16.417Z,93.80
2022-10-17T17:46:48.167Z,94.40
2022-10-17T17:49:16.645Z,92.20
2022-10-17T17:51:46.676Z,92.70
2022-10-17T17:54:16.189Z,93.70
2022-10-17T17:56:44.636Z,93.40
2022-10-17T17:59:14.588Z,93.10
2022-10-17T18:01:44.151Z,95.90
2022-10-17T18:04:16.539Z,95.40
2022-10-17T18:06:45.747Z,93.10
2022-10-17T18:09:14.194Z,94.30
2022-10-17T18:11:42.893Z,95.30
2022-10-17T18:14:14.072Z,95.90
2022-10-17T18:16:43.503Z,95.10
2022-10-17T18:19:14.711Z,93.90
2022-10-17T18:21:44.503Z,93.00
2022-10-17T18:24:12.976Z,94.30
2022-10-17T18:26:41.500Z,96.90
2022-10-17T18:29:11.779Z,95.40
2022-10-17T18:31:40.571Z,94.30
2022-10-17T18:34:09.223Z,95.30
2022-10-17T18:36:39.308Z,95.50
2022-10-17T18:39:08.141Z,93.60
2022-10-17T18:41:36.636Z,95.60
2022-10-17T18:44:05.438Z,94.70
2022-10-17T18:46:40.670Z,94.00
2022-10-17T18:49:10.392Z,93.90
2022-10-17T18:51:41.637Z,94.10
2022-10-17T18:54:16.796Z,94.50
2022-10-17T18:56:45.598Z,94.70
2022-10-17T18:59:14.136Z,93.60
2022-10-17T19:01:43.578Z,93.50
2022-10-17T19:04:12.336Z,93.70
2022-10-17T19:06:43.167Z,95.20
2022-10-17T19:09:14.569Z,97.00
2022-10-17T19:11:43.241Z,94.00
2022-10-17T19:14:14.197Z,93.50
2022-10-17T19:16:45.469Z,94.10
2022-10-17T19:19:18.109Z,95.90
2022-10-17T19:21:48.544Z,94.40
2022-10-17T19:24:21.223Z,93.60
2022-10-17T19:26:53.449Z,94.30
2022-10-17T19:29:26.542Z,97.30
2022-10-17T19:34:29.161Z,95.20
2022-10-17T19:36:59.702Z,94.50
2022-10-17T19:39:28.187Z,94.40
2022-10-17T19:41:56.954Z,96.30
2022-10-17T19:44:25.541Z,96.90
2022-10-17T19:46:54.457Z,94.90
2022-10-17T19:49:22.895Z,94.80
2022-10-17T19:51:51.508Z,94.30
2022-10-17T19:54:21.328Z,95.10
2022-10-17T19:56:50.504Z,97.60
2022-10-17T19:59:19.366Z,97.90
2022-10-17T20:01:48.133Z,98.10
2022-10-17T20:04:16.917Z,95.60
2022-10-17T20:06:45.441Z,95.60
2022-10-17T20:09:17.008Z,98.70
2022-10-17T20:11:50.096Z,99.90
2022-10-17T20:14:18.567Z,98.50
2022-10-17T20:16:50.401Z,99.90
2022-10-17T20:19:18.866Z,99.90
2022-10-17T20:21:47.706Z,97.80
2022-10-17T20:24:18.205Z,99.10
2022-10-17T20:26:48.119Z,97.30
2022-10-17T20:29:19.282Z,96.60
2022-10-17T20:31:49.315Z,96.00
2022-10-17T20:34:20.948Z,96.20
2022-10-17T20:36:50.064Z,98.40
2022-10-17T20:39:21.284Z,96.40
2022-10-17T20:41:51.127Z,95.60
2022-10-17T20:44:19.580Z,95.70
2022-10-17T20:47:01.217Z,95.80
2022-10-17T20:49:32.393Z,95.90
2022-10-17T20:52:01.936Z,97.10
2022-10-17T20:54:30.498Z,96.30
2022-10-17T20:57:03.902Z,96.60
2022-10-17T20:59:35.887Z,96.10
2022-10-17T21:02:04.681Z,96.20
2022-10-17T21:04:46.780Z,95.40
2022-10-17T21:07:16.162Z,95.70
2022-10-17T21:09:46.582Z,96.30
2022-10-17T21:12:25.896Z,98.70
2022-10-17T21:15:06.120Z,97.20
2022-10-17T21:17:34.660Z,95.60
2022-10-17T21:20:03.130Z,96.70
2022-10-17T21:22:31.939Z,97.50
2022-10-17T21:25:00.607Z,98.20
2022-10-17T21:27:30.736Z,98.50
2022-10-17T21:29:59.249Z,98.70
2022-10-17T21:32:47.195Z,97.90
2022-10-17T21:35:16.730Z,97.40
2022-10-17T21:37:45.243Z,96.40
2022-10-17T21:40:14.493Z,96.90
2022-10-17T21:42:44.342Z,96.80
2022-10-17T21:45:15.742Z,96.90
2022-10-17T21:48:12.088Z,96.50
2022-10-17T21:50:42.105Z,96.90
2022-10-17T21:53:10.591Z,98.80
2022-10-17T21:55:39.328Z,98.40
2022-10-17T21:58:09.387Z,99.20
2022-10-17T22:00:38.039Z,99.90
2022-10-17T22:03:07.283Z,99.90
2022-10-17T22:05:35.753Z,99.90
2022-10-17T22:08:04.238Z,99.90
2022-10-17T22:10:32.910Z,98.80
2022-10-17T22:13:01.350Z,97.40
2022-10-17T22:15:31.597Z,96.80
2022-10-17T22:18:00.070Z,96.30
2022-10-17T22:20:28.744Z,97.50
2022-10-17T22:22:57.428Z,97.70
2022-10-17T22:25:25.955Z,97.60
2022-10-17T22:27:54.881Z,99.20
2022-10-17T22:30:23.360Z,99.00
2022-10-17T22:32:53.194Z,97.30
2022-10-17T22:35:22.035Z,98.80
2022-10-17T22:37:50.720Z,99.60
2022-10-17T22:40:19.263Z,97.80
2022-10-17T22:42:47.697Z,98.60
2022-10-17T22:45:16.347Z,99.50
2022-10-17T22:47:44.860Z,98.40
2022-10-17T22:50:14.809Z,98.40
2022-10-17T22:52:43.484Z,98.50
2022-10-17T22:55:12.010Z,98.30
2022-10-17T22:57:40.878Z,98.40
2022-10-17T23:00:12.584Z,99.20
2022-10-17T23:02:41.739Z,99.80
2022-10-17T23:05:11.761Z,99.20
2022-10-17T23:07:41.617Z,99.00
2022-10-17T23:10:11.353Z,99.40
2022-10-17T23:12:39.928Z,99.90
2022-10-17T23:15:10.075Z,99.90
2022-10-17T23:17:38.556Z,99.60
2022-10-17T23:20:08.628Z,99.00
2022-10-17T23:22:37.366Z,99.20
2022-10-17T23:25:08.429Z,99.90
2022-10-17T23:27:37.113Z,99.90
2022-10-17T23:30:07.275Z,99.80
2022-10-17T23:32:35.774Z,99.10
2022-10-17T23:35:04.740Z,99.20
2022-10-17T23:37:33.651Z,98.80
2022-10-17T23:40:02.477Z,99.00
2022-10-17T23:42:32.303Z,99.60
2022-10-17T23:45:00.769Z,99.10
2022-10-17T23:47:31.285Z,99.70
2022-10-17T23:50:00.361Z,99.10
2022-10-17T23:52:28.832Z,98.90
2022-10-17T23:57:44.927Z,99.90
